Time;durP1;ratioP1;P1;durP2;ratioP2;P2;SDS_P1;SDS_P2;PMS_P1;PMS_P2;Temp;Humidity;BMP_temperature;BMP_pressure;BME280_temperature;BME280_humidity;BME280_pressure;Samples;Min_cycle;Max_cycle;Signal;HPM_P1;HPM_P2
2022/09/04 00:01:56;;;;;;;4.03;1.35;;;;;;;21.91;32.69;101532.44;5050034;27;98990;-68
2022/09/04 00:04:33;;;;;;;4.45;1.23;;;;;;;21.80;33.01;101548.47;5049926;27;97206;-67
2022/09/04 00:07:12;;;;;;;2.47;0.93;;;;;;;21.79;33.01;101531.47;5045217;27;96889;-67
2022/09/04 00:09:51;;;;;;;3.13;1.15;;;;;;;21.70;33.15;101540.19;5045727;27;99019;-68
2022/09/04 00:12:25;;;;;;;11.20;1.55;;;;;;;21.63;33.38;101536.19;5048989;27;98832;-67
2022/09/04 00:14:59;;;;;;;5.68;1.30;;;;;;;21.69;33.37;101535.78;5051442;27;96799;-68
2022/09/04 00:17:32;;;;;;;4.57;1.10;;;;;;;21.70;33.26;101529.44;5046217;27;96927;-67
2022/09/04 00:20:05;;;;;;;2.85;1.30;;;;;;;21.80;33.30;101535.88;5047607;27;99914;-67
2022/09/04 00:22:51;;;;;;;5.22;1.40;;;;;;;21.73;33.50;101529.19;5049330;27;98929;-67
2022/09/04 00:25:25;;;;;;;1.13;1.00;;;;;;;21.61;33.92;101534.56;5040730;27;97252;-67
2022/09/04 00:28:03;;;;;;;8.70;1.67;;;;;;;21.57;33.90;101538.44;5048763;27;96750;-67
2022/09/04 00:30:31;;;;;;;2.63;1.02;;;;;;;21.56;33.77;101534.91;5048348;27;99123;-67
2022/09/04 00:33:05;;;;;;;2.88;1.20;;;;;;;21.54;34.10;101538.66;5042777;27;98816;-67
2022/09/04 00:35:35;;;;;;;3.10;0.93;;;;;;;21.47;34.19;101539.06;5042095;27;97482;-67
2022/09/04 00:38:07;;;;;;;7.07;1.13;;;;;;;21.44;34.29;101533.91;5048405;27;96799;-67
2022/09/04 00:40:41;;;;;;;2.70;1.02;;;;;;;21.45;34.24;101543.72;5051461;27;100190;-67
2022/09/04 00:43:34;;;;;;;3.45;1.25;;;;;;;21.32;34.52;101550.88;5051271;27;98726;-67
2022/09/04 00:46:19;;;;;;;4.72;1.13;;;;;;;21.44;34.44;101546.50;5047408;27;97575;-66
2022/09/04 00:49:07;;;;;;;2.13;1.05;;;;;;;21.37;34.48;101545.19;5050762;27;97351;-69
2022/09/04 00:51:44;;;;;;;3.97;1.10;;;;;;;21.51;34.17;101545.13;5048637;27;98108;-67
2022/09/04 00:54:37;;;;;;;6.10;1.40;;;;;;;21.41;34.26;101547.56;5050566;27;98723;-67
2022/09/04 00:57:38;;;;;;;4.25;1.30;;;;;;;21.37;34.78;101555.94;5049845;27;96886;-67
2022/09/04 01:00:14;;;;;;;7.45;1.17;;;;;;;21.36;34.73;101548.84;5052143;27;97990;-67
2022/09/04 01:03:00;;;;;;;1.88;0.98;;;;;;;21.38;34.79;101555.84;5050867;27;99247;-67
2022/09/04 01:05:44;;;;;;;5.57;1.20;;;;;;;21.33;34.87;101567.88;5049586;27;98870;-67
2022/09/04 01:08:24;;;;;;;4.45;1.25;;;;;;;21.30;34.73;101565.38;5053217;27;96866;-67
2022/09/04 01:11:06;;;;;;;1.55;0.85;;;;;;;21.39;34.44;101557.56;5047488;27;96869;-66
2022/09/04 01:13:40;;;;;;;2.78;1.13;;;;;;;21.39;34.50;101570.16;5048110;27;98541;-67
2022/09/04 01:16:14;;;;;;;3.22;1.00;;;;;;;21.48;34.53;101572.19;5045131;27;98072;-67
2022/09/04 01:18:49;;;;;;;7.80;1.25;;;;;;;21.39;34.62;101579.09;5049105;27;99242;-67
2022/09/04 01:21:55;;;;;;;5.22;1.40;;;;;;;21.41;34.56;101577.13;5051947;27;96856;-67
2022/09/04 01:24:45;;;;;;;4.25;1.15;;;;;;;21.41;34.50;101579.81;5048919;27;98942;-67
2022/09/04 01:27:19;;;;;;;2.70;1.17;;;;;;;21.36;34.65;101586.47;5042036;27;99412;-67
2022/09/04 01:29:52;;;;;;;5.50;1.17;;;;;;;21.27;34.49;101577.19;5051497;27;97142;-67
2022/09/04 01:32:31;;;;;;;2.80;0.98;;;;;;;21.26;34.93;101572.81;5049331;27;96795;-67
2022/09/04 01:35:10;;;;;;;3.47;0.90;;;;;;;21.24;34.79;101573.88;5048250;27;99269;-68
2022/09/04 01:37:50;;;;;;;4.85;0.95;;;;;;;21.21;34.99;101576.75;5047714;27;98891;-66
2022/09/04 01:40:30;;;;;;;4.72;1.13;;;;;;;21.37;34.50;101580.13;5053942;27;97641;-67
2022/09/04 01:43:03;;;;;;;2.08;1.10;;;;;;;21.34;34.44;101577.63;5046657;27;96822;-67
2022/09/04 01:45:48;;;;;;;2.90;0.90;;;;;;;21.23;34.88;101574.81;5050949;27;101174;-66
2022/09/04 01:48:20;;;;;;;2.85;1.15;;;;;;;21.23;34.52;101580.19;5034917;27;99193;-67
2022/09/04 01:50:53;;;;;;;3.25;0.82;;;;;;;21.18;34.75;101574.28;5052229;27;97264;-68
2022/09/04 01:53:25;;;;;;;3.83;1.00;;;;;;;21.11;34.77;101571.09;5053234;27;96802;-68
2022/09/04 01:56:03;;;;;;;3.42;0.88;;;;;;;20.87;34.99;101568.19;5049819;27;98974;-69
2022/09/04 01:58:37;;;;;;;2.75;0.80;;;;;;;21.15;34.93;101572.59;5044957;27;98907;-67
2022/09/04 02:01:17;;;;;;;4.63;1.25;;;;;;;21.02;35.08;101575.25;5047704;27;97162;-67
2022/09/04 02:03:53;;;;;;;3.50;0.73;;;;;;;21.17;34.74;101575.22;5049751;27;96923;-67
2022/09/04 02:06:31;;;;;;;3.53;1.25;;;;;;;21.07;34.87;101577.63;5047755;27;99264;-67
2022/09/04 02:09:14;;;;;;;1.33;0.90;;;;;;;21.06;35.08;101573.25;5051288;27;98867;-66
2022/09/04 02:11:48;;;;;;;1.30;0.90;;;;;;;20.93;35.15;101565.13;5048375;27;96773;-67
2022/09/04 02:14:31;;;;;;;2.42;0.90;;;;;;;20.77;35.10;101564.38;5052637;27;96885;-67
2022/09/04 02:17:09;;;;;;;2.35;1.00;;;;;;;20.78;35.47;101568.81;5048590;27;99416;-68
2022/09/04 02:19:53;;;;;;;1.52;1.02;;;;;;;20.80;35.31;101564.22;5051987;27;99485;-66
2022/09/04 02:22:28;;;;;;;5.07;1.00;;;;;;;20.83;35.29;101564.00;5047085;27;96885;-67
2022/09/04 02:25:04;;;;;;;2.42;0.80;;;;;;;20.80;35.28;101569.56;5051492;27;97432;-67
2022/09/04 02:27:38;;;;;;;3.47;1.30;;;;;;;20.90;34.92;101576.06;5045901;27;99136;-66
2022/09/04 02:30:10;;;;;;;2.40;0.80;;;;;;;20.93;35.04;101573.19;5049004;27;100302;-66
2022/09/04 02:32:45;;;;;;;4.57;1.00;;;;;;;20.80;35.44;101568.72;5041327;27;97977;-66
2022/09/04 02:35:20;;;;;;;1.10;1.00;;;;;;;20.86;35.17;101579.91;5046422;27;96781;-66
2022/09/04 02:38:01;;;;;;;4.15;0.90;;;;;;;20.87;34.95;101578.09;5050345;27;99240;-67
2022/09/04 02:40:37;;;;;;;2.17;1.10;;;;;;;20.95;35.10;101573.94;5050155;27;99095;-67
2022/09/04 02:43:21;;;;;;;3.75;0.90;;;;;;;20.84;35.26;101571.09;5043571;27;97066;-70
2022/09/04 02:45:59;;;;;;;2.50;1.30;;;;;;;20.79;35.05;101573.22;5045451;27;97132;-67
2022/09/04 02:48:34;;;;;;;1.77;0.82;;;;;;;20.82;35.00;101581.06;5045331;27;98925;-67
2022/09/04 02:51:16;;;;;;;1.40;0.80;;;;;;;20.87;34.81;101573.56;5049514;27;98913;-67
2022/09/04 02:53:51;;;;;;;1.52;0.90;;;;;;;21.03;34.96;101584.16;5050937;27;96819;-67
2022/09/04 02:56:31;;;;;;;2.83;0.90;;;;;;;20.88;35.08;101583.34;5049215;27;97284;-68
2022/09/04 02:59:15;;;;;;;2.85;1.10;;;;;;;20.90;34.76;101580.56;5044902;27;98858;-67
2022/09/04 03:01:50;;;;;;;0.77;0.75;;;;;;;20.82;34.82;101585.56;5050221;27;99182;-68
2022/09/04 03:04:24;;;;;;;1.98;1.15;;;;;;;20.79;34.86;101581.28;5042702;27;96895;-67
2022/09/04 03:06:54;;;;;;;3.45;1.05;;;;;;;20.78;34.91;101570.63;5048885;27;97059;-67
2022/09/04 03:09:28;;;;;;;1.15;1.02;;;;;;;20.92;34.70;101574.16;5048421;27;101676;-67
2022/09/04 03:11:59;;;;;;;4.00;1.30;;;;;;;20.69;35.21;101570.25;5049337;27;99548;-66
2022/09/04 03:14:33;;;;;;;1.90;0.98;;;;;;;20.54;35.22;101573.09;5049098;27;97053;-67
2022/09/04 03:17:05;;;;;;;2.92;0.60;;;;;;;20.56;35.52;101576.50;5042256;27;96900;-67
2022/09/04 03:19:40;;;;;;;2.05;1.25;;;;;;;20.62;35.41;101576.97;5052480;27;99217;-68
2022/09/04 03:22:12;;;;;;;1.75;0.93;;;;;;;20.61;35.17;101574.41;5047559;27;98871;-66
2022/09/04 03:25:00;;;;;;;2.10;0.73;;;;;;;20.29;35.72;101568.34;5049066;27;97675;-67
2022/09/04 03:27:30;;;;;;;4.60;0.60;;;;;;;20.47;35.49;101583.34;5047748;27;96860;-66
2022/09/04 03:30:02;;;;;;;2.45;1.02;;;;;;;20.45;35.42;101584.41;5049690;27;98860;-67
2022/09/04 03:32:39;;;;;;;1.33;0.93;;;;;;;20.48;35.39;101585.03;5049348;27;99133;-67
2022/09/04 03:35:12;;;;;;;1.90;1.23;;;;;;;20.36;35.73;101590.34;5049095;27;96748;-68
2022/09/04 03:37:53;;;;;;;3.60;1.00;;;;;;;20.50;35.13;101587.66;5043474;27;96890;-67
2022/09/04 03:40:36;;;;;;;1.10;0.93;;;;;;;20.49;35.26;101584.09;5050376;27;98859;-68
2022/09/04 03:43:20;;;;;;;7.95;1.10;;;;;;;20.54;35.22;101589.19;5048861;27;98761;-67
2022/09/04 03:45:56;;;;;;;2.45;0.60;;;;;;;20.56;35.28;101585.44;5048868;27;96897;-67
2022/09/04 03:48:43;;;;;;;4.25;1.20;;;;;;;20.48;35.47;101592.28;5047616;27;96752;-67
2022/09/04 03:51:24;;;;;;;1.45;0.98;;;;;;;20.44;35.45;101596.09;5047132;27;99250;-67
2022/09/04 03:54:01;;;;;;;1.10;0.82;;;;;;;20.52;35.22;101591.97;5052324;27;98722;-67
2022/09/04 03:56:43;;;;;;;1.73;0.98;;;;;;;20.43;35.35;101592.53;5049111;27;97303;-66
2022/09/04 03:59:18;;;;;;;2.65;1.30;;;;;;;20.29;35.56;101593.38;5045679;27;96842;-67
2022/09/04 04:01:56;;;;;;;4.45;1.10;;;;;;;20.38;35.79;101594.66;5048080;27;98825;-67
2022/09/04 04:04:52;;;;;;;1.73;0.80;;;;;;;20.50;35.36;101595.69;5040737;27;98980;-67
2022/09/04 04:07:29;;;;;;;2.40;1.40;;;;;;;20.59;35.57;101606.72;5045262;27;98412;-67
2022/09/04 04:10:13;;;;;;;2.53;1.00;;;;;;;20.34;35.45;101603.00;5048565;27;99160;-67
2022/09/04 04:13:03;;;;;;;2.53;1.30;;;;;;;20.52;35.32;101607.22;5050392;27;98934;-67
2022/09/04 04:15:43;;;;;;;1.35;0.95;;;;;;;20.26;35.77;101600.75;5047100;27;99002;-67
2022/09/04 04:18:30;;;;;;;2.03;1.08;;;;;;;20.32;35.73;101604.88;5046482;27;96841;-69
2022/09/04 04:21:07;;;;;;;3.25;1.02;;;;;;;20.41;35.66;101609.72;5050038;27;97526;-67
2022/09/04 04:23:56;;;;;;;2.58;1.00;;;;;;;20.24;35.95;101606.22;5046482;27;99156;-67
2022/09/04 04:26:37;;;;;;;1.48;1.10;;;;;;;20.30;35.85;101619.25;5041429;27;98818;-67
2022/09/04 04:29:19;;;;;;;3.30;0.90;;;;;;;20.35;35.47;101615.47;5043686;27;96881;-67
2022/09/04 04:32:12;;;;;;;3.60;0.90;;;;;;;19.94;36.46;101616.16;5044992;27;96754;-67
2022/09/04 04:34:55;;;;;;;3.40;0.85;;;;;;;20.25;35.88;101615.13;5041479;27;99560;-67
2022/09/04 04:37:37;;;;;;;2.67;0.98;;;;;;;20.11;36.17;101618.66;5049890;27;98807;-67
2022/09/04 04:40:10;;;;;;;1.42;0.82;;;;;;;20.02;36.02;101623.75;5049368;27;96749;-67
2022/09/04 04:42:52;;;;;;;6.65;1.10;;;;;;;20.40;35.34;101626.78;5050252;27;98010;-67
2022/09/04 04:48:37;;;;;;;3.42;0.95;;;;;;;20.17;35.73;101622.78;5044634;27;97054;-67
2022/09/04 04:51:17;;;;;;;3.17;0.90;;;;;;;20.23;35.94;101630.47;4999480;27;96940;-68
2022/09/04 04:53:54;;;;;;;1.35;0.75;;;;;;;19.94;36.06;101632.25;5042756;27;96938;-67
2022/09/04 04:56:30;;;;;;;1.85;1.08;;;;;;;20.07;36.06;101637.75;5042362;27;100650;-67
2022/09/04 04:59:07;;;;;;;6.55;1.35;;;;;;;20.18;35.95;101625.38;5047145;27;100537;-67
2022/09/04 05:01:44;;;;;;;6.20;1.10;;;;;;;20.20;35.73;101646.78;5048540;27;96763;-68
2022/09/04 05:04:18;;;;;;;1.63;0.90;;;;;;;20.15;35.86;101641.66;5048713;27;96982;-68
2022/09/04 05:06:51;;;;;;;1.67;1.10;;;;;;;20.09;36.04;101642.03;5048150;27;99503;-67
2022/09/04 05:09:32;;;;;;;4.47;1.20;;;;;;;20.20;35.88;101652.13;5044793;27;98211;-67
2022/09/04 05:12:09;;;;;;;2.22;0.93;;;;;;;20.29;35.56;101657.78;5044147;27;97167;-67
2022/09/04 05:14:46;;;;;;;2.30;1.00;;;;;;;20.27;35.25;101669.59;5048543;27;97167;-68
2022/09/04 05:17:22;;;;;;;5.40;0.82;;;;;;;20.29;35.78;101679.25;5047698;27;99400;-66
2022/09/04 05:19:58;;;;;;;3.72;1.08;;;;;;;20.46;35.40;101680.09;5048815;27;98872;-66
2022/09/04 05:22:33;;;;;;;2.03;0.75;;;;;;;20.56;35.19;101670.47;5043469;27;98074;-67
2022/09/04 05:25:09;;;;;;;3.58;1.30;;;;;;;20.57;35.46;101682.97;5047878;27;96921;-66
2022/09/04 05:27:47;;;;;;;1.77;1.05;;;;;;;20.58;35.38;101685.56;5050338;27;98891;-67
2022/09/04 05:30:22;;;;;;;1.95;0.90;;;;;;;20.66;35.06;101687.75;5047139;27;98769;-66
2022/09/04 05:32:56;;;;;;;4.88;1.08;;;;;;;20.48;35.36;101696.97;5051184;27;97216;-67
2022/09/04 05:35:32;;;;;;;3.17;1.27;;;;;;;20.66;35.09;101701.19;5047210;27;97488;-67
2022/09/04 05:38:10;;;;;;;1.58;1.33;;;;;;;20.71;34.67;101706.25;5042946;27;98994;-67
2022/09/04 05:41:02;;;;;;;3.65;1.10;;;;;;;20.60;35.02;101713.19;5052061;27;99017;-67
2022/09/04 05:43:42;;;;;;;3.28;1.55;;;;;;;20.84;34.53;101708.09;5048410;27;96867;-66
2022/09/04 05:46:16;;;;;;;5.22;1.10;;;;;;;20.81;34.89;101716.31;5049829;27;96812;-67
2022/09/04 05:48:51;;;;;;;2.63;0.93;;;;;;;20.82;34.66;101717.19;5050089;27;99132;-68
2022/09/04 05:51:55;;;;;;;2.33;1.20;;;;;;;20.82;34.59;101726.09;5050949;27;98899;-68
2022/09/04 05:54:42;;;;;;;1.38;0.98;;;;;;;20.86;34.91;101724.13;5047916;27;97504;-67
2022/09/04 05:57:22;;;;;;;2.60;1.20;;;;;;;21.23;34.31;101733.41;5042048;27;97155;-69
2022/09/04 06:00:08;;;;;;;3.38;1.27;;;;;;;21.08;34.48;101733.38;5048584;27;99250;-67
2022/09/04 06:03:07;;;;;;;5.55;1.20;;;;;;;21.05;34.49;101730.91;5051008;27;98980;-67
2022/09/04 06:05:54;;;;;;;2.75;1.17;;;;;;;21.01;34.47;101737.41;5041657;27;96866;-67
2022/09/04 06:08:45;;;;;;;1.40;0.95;;;;;;;21.33;34.25;101742.63;5047809;27;96753;-67
2022/09/04 06:11:36;;;;;;;3.65;1.20;;;;;;;21.43;34.24;101741.91;5041023;27;99245;-68
2022/09/04 06:14:23;;;;;;;4.20;1.30;;;;;;;21.61;33.86;101747.91;5048106;27;99266;-67
2022/09/04 06:17:04;;;;;;;3.47;1.27;;;;;;;21.86;33.41;101739.06;5038961;27;97607;-67
2022/09/04 06:20:02;;;;;;;2.97;1.33;;;;;;;21.78;33.21;101744.09;5047695;27;97258;-68
2022/09/04 06:22:53;;;;;;;3.88;1.30;;;;;;;21.65;33.63;101746.75;5043323;27;99143;-70
2022/09/04 06:25:39;;;;;;;5.68;1.70;;;;;;;21.69;33.61;101744.72;5048736;27;98747;-68
2022/09/04 06:28:24;;;;;;;1.93;1.20;;;;;;;21.63;34.01;101747.81;5043840;27;96820;-67
2022/09/04 06:30:59;;;;;;;2.72;1.73;;;;;;;21.64;34.05;101739.66;5050385;27;96868;-67
2022/09/04 06:33:40;;;;;;;6.35;2.03;;;;;;;21.67;34.12;101754.69;5051287;27;98986;-67
2022/09/04 06:36:25;;;;;;;3.22;1.77;;;;;;;21.63;34.38;101748.66;5054294;27;99088;-68
2022/09/04 06:39:08;;;;;;;2.95;1.83;;;;;;;21.78;34.02;101752.19;5046904;27;96823;-67
2022/09/04 06:41:52;;;;;;;2.17;1.25;;;;;;;21.86;34.14;101756.06;5049095;27;97135;-68
2022/09/04 06:44:32;;;;;;;2.65;1.40;;;;;;;22.01;34.15;101751.53;5047932;27;99045;-67
2022/09/04 06:47:12;;;;;;;4.03;1.63;;;;;;;22.20;34.18;101757.38;5045938;27;98825;-67
2022/09/04 06:49:55;;;;;;;3.90;1.52;;;;;;;22.23;34.05;101762.56;5041470;27;96838;-67
2022/09/04 06:52:32;;;;;;;2.00;1.50;;;;;;;22.26;33.79;101762.34;5044249;27;96726;-68
2022/09/04 06:55:00;;;;;;;7.28;1.52;;;;;;;22.49;33.65;101766.16;5045556;27;98865;-67
2022/09/04 06:57:47;;;;;;;6.88;1.83;;;;;;;22.47;33.66;101767.22;5046024;27;98953;-68
2022/09/04 07:00:16;;;;;;;5.88;1.75;;;;;;;22.37;33.95;101772.41;5048018;27;96826;-69
2022/09/04 07:03:13;;;;;;;5.70;1.70;;;;;;;22.57;33.69;101779.97;5049811;27;97039;-68
2022/09/04 07:05:52;;;;;;;3.95;2.10;;;;;;;22.65;33.74;101782.97;5043284;27;98034;-68
2022/09/04 07:08:31;;;;;;;2.85;1.60;;;;;;;22.66;33.66;101783.81;5045523;27;99229;-66
2022/09/04 07:11:08;;;;;;;6.30;2.25;;;;;;;22.76;33.63;101787.66;5054146;27;96966;-67
2022/09/04 07:13:46;;;;;;;5.13;2.03;;;;;;;22.83;33.77;101788.94;5045926;27;96691;-66
2022/09/04 07:16:29;;;;;;;2.97;1.88;;;;;;;22.95;33.65;101789.91;5050871;27;99727;-67
2022/09/04 07:19:24;;;;;;;3.28;2.03;;;;;;;22.95;33.63;101790.78;5049749;27;99547;-67
2022/09/04 07:22:02;;;;;;;3.47;2.13;;;;;;;23.03;33.65;101779.44;5049734;27;96880;-67
2022/09/04 07:24:46;;;;;;;4.18;2.22;;;;;;;23.17;33.70;101778.47;5041344;27;97162;-68
2022/09/04 07:27:19;;;;;;;4.43;2.15;;;;;;;23.36;33.64;101781.56;5046675;27;99357;-67
2022/09/04 07:29:55;;;;;;;5.15;2.25;;;;;;;23.27;33.53;101777.69;5040005;27;100236;-68
2022/09/04 07:32:28;;;;;;;4.22;2.30;;;;;;;23.50;33.53;101783.28;5048344;27;96816;-67
2022/09/04 07:35:06;;;;;;;5.40;1.88;;;;;;;23.34;33.43;101784.34;5048158;27;97205;-67
2022/09/04 07:37:40;;;;;;;3.63;1.88;;;;;;;23.39;33.79;101784.88;5042480;27;98798;-66
2022/09/04 07:40:12;;;;;;;3.67;2.30;;;;;;;23.61;33.54;101780.66;5044862;27;99019;-67
2022/09/04 07:42:47;;;;;;;2.70;2.03;;;;;;;23.68;33.36;101776.53;5043525;27;97027;-66
2022/09/04 07:45:28;;;;;;;3.95;2.10;;;;;;;23.74;33.33;101784.16;5044726;27;98552;-66
2022/09/04 07:48:08;;;;;;;3.00;2.08;;;;;;;24.14;32.72;101788.28;5044398;27;99109;-67
2022/09/04 07:50:45;;;;;;;4.68;2.28;;;;;;;24.00;33.17;101785.75;5044914;27;98907;-68
2022/09/04 07:53:26;;;;;;;4.28;2.35;;;;;;;24.11;33.42;101796.59;5047877;27;96741;-67
2022/09/04 07:56:00;;;;;;;2.72;2.22;;;;;;;23.95;33.55;101790.66;5044788;27;97872;-67
2022/09/04 07:58:43;;;;;;;4.15;2.50;;;;;;;24.45;32.95;101800.31;5045000;27;100790;-68
2022/09/04 08:01:34;;;;;;;3.45;2.13;;;;;;;24.80;32.31;101802.13;5044137;27;99820;-68
2022/09/04 08:04:22;;;;;;;6.93;2.80;;;;;;;25.29;31.56;101804.50;5043986;27;98450;-68
2022/09/04 08:06:57;;;;;;;4.97;2.10;;;;;;;25.56;31.27;101799.56;5045430;27;96786;-68
2022/09/04 08:09:50;;;;;;;6.05;2.10;;;;;;;25.37;31.55;101802.91;5043185;27;101670;-67
2022/09/04 08:12:59;;;;;;;3.83;2.05;;;;;;;25.50;31.32;101808.19;5045779;27;98116;-66
2022/09/04 08:15:35;;;;;;;3.53;2.67;;;;;;;25.67;31.34;101810.38;5047049;27;96876;-66
2022/09/04 08:18:24;;;;;;;6.47;1.85;;;;;;;25.65;31.58;101806.97;5043757;27;98734;-66
2022/09/04 08:21:02;;;;;;;5.45;2.20;;;;;;;25.60;31.26;101808.34;5048012;27;99221;-66
2022/09/04 08:23:56;;;;;;;4.07;1.95;;;;;;;25.45;32.14;101818.53;5044683;27;101145;-66
2022/09/04 08:26:34;;;;;;;4.40;2.30;;;;;;;25.32;31.99;101815.97;5047856;27;96815;-70
2022/09/04 08:29:15;;;;;;;4.00;1.90;;;;;;;25.79;31.65;101822.09;5047714;27;96928;-66
2022/09/04 08:31:54;;;;;;;3.00;2.30;;;;;;;25.71;31.56;101814.59;5043927;27;99019;-67
2022/09/04 08:34:44;;;;;;;4.47;2.13;;;;;;;25.67;31.75;101818.50;5043510;27;97648;-66
2022/09/04 08:37:21;;;;;;;4.85;2.45;;;;;;;25.64;32.03;101821.50;5044643;27;97358;-66
2022/09/04 08:40:01;;;;;;;4.18;2.30;;;;;;;25.38;32.50;101817.31;5048314;27;98082;-67
2022/09/04 08:43:14;;;;;;;4.35;2.30;;;;;;;25.49;32.18;101820.00;5042117;27;99122;-67
2022/09/04 08:46:14;;;;;;;5.50;2.47;;;;;;;25.57;32.20;101813.97;4959920;28;99066;-66
2022/09/04 08:49:23;;;;;;;3.35;2.00;;;;;;;25.57;32.15;101814.84;4959718;28;97703;-66
2022/09/04 08:52:30;;;;;;;2.78;2.20;;;;;;;25.52;31.96;101819.75;5040191;27;97921;-67
2022/09/04 08:55:27;;;;;;;3.63;2.15;;;;;;;25.79;31.94;101819.38;5042130;27;99401;-67
2022/09/04 08:58:35;;;;;;;3.28;1.92;;;;;;;25.95;31.72;101818.94;5043591;27;99038;-66
2022/09/04 09:01:09;;;;;;;;;;;;;;;25.89;31.47;101819.44;5046107;27;96873;-67
2022/09/04 09:04:10;;;;;;;2.90;2.00;;;;;;;26.03;31.03;101824.59;5046603;27;98998;-67
2022/09/04 09:07:18;;;;;;;11.55;2.08;;;;;;;26.04;30.97;101829.88;5050275;27;99535;-67
2022/09/04 09:10:03;;;;;;;5.38;2.20;;;;;;;25.95;31.38;101824.34;5038437;27;97454;-66
2022/09/04 09:12:56;;;;;;;9.15;2.58;;;;;;;26.22;31.28;101824.75;5050082;27;96796;-66
2022/09/04 09:15:52;;;;;;;2.42;1.85;;;;;;;26.24;31.07;101825.53;5047093;27;98877;-67
2022/09/04 09:18:37;;;;;;;3.05;2.55;;;;;;;26.33;31.05;101811.19;5042020;27;99375;-66
2022/09/04 09:21:10;;;;;;;3.75;2.10;;;;;;;26.42;30.89;101815.84;5044466;27;99026;-66
2022/09/04 09:24:09;;;;;;;4.28;2.03;;;;;;;26.16;31.42;101822.56;5046174;27;98736;-67
2022/09/04 09:26:43;;;;;;;3.65;1.80;;;;;;;26.07;31.27;101818.78;5044014;27;97402;-67
2022/09/04 09:29:44;;;;;;;2.85;1.98;;;;;;;26.18;30.78;101820.59;5050977;27;99292;-67
2022/09/04 09:32:53;;;;;;;3.75;1.77;;;;;;;26.28;31.15;101821.56;5046949;27;98032;-66
2022/09/04 09:35:54;;;;;;;1.95;1.70;;;;;;;26.50;30.46;101824.19;5035284;27;97145;-67
2022/09/04 09:38:53;;;;;;;3.85;2.10;;;;;;;26.65;30.45;101823.84;5048502;27;96892;-67
2022/09/04 09:42:05;;;;;;;3.83;1.60;;;;;;;26.74;30.41;101817.63;5047708;27;97984;-67
2022/09/04 09:45:02;;;;;;;3.05;1.90;;;;;;;26.75;30.18;101820.19;5046659;27;99209;-67
2022/09/04 09:47:56;;;;;;;3.33;2.10;;;;;;;27.00;29.78;101818.94;5045949;27;97587;-66
2022/09/04 09:50:50;;;;;;;2.63;1.50;;;;;;;26.80;29.80;101811.66;5047773;27;97350;-66
2022/09/04 09:54:02;;;;;;;2.40;1.70;;;;;;;26.93;29.82;101817.75;5050272;27;97754;-67
2022/09/04 09:57:18;;;;;;;2.17;1.20;;;;;;;27.00;29.63;101809.94;5045048;27;98967;-66
2022/09/04 10:00:09;;;;;;;1.90;1.58;;;;;;;27.15;29.43;101811.31;5046853;27;96984;-67
2022/09/04 10:03:25;;;;;;;4.05;2.10;;;;;;;27.25;29.45;101812.19;5043224;27;96940;-67
2022/09/04 10:06:25;;;;;;;3.13;1.98;;;;;;;27.31;29.39;101806.22;5045533;27;98788;-66
2022/09/04 10:09:15;;;;;;;5.85;1.77;;;;;;;27.11;29.33;101807.16;5046110;27;97683;-67
2022/09/04 10:12:05;;;;;;;3.83;1.50;;;;;;;27.20;29.52;101814.47;5046768;27;98278;-66
2022/09/04 10:15:00;;;;;;;4.32;2.30;;;;;;;27.34;29.32;101811.41;5050623;27;97076;-66
2022/09/04 10:17:54;;;;;;;1.55;1.45;;;;;;;27.36;29.53;101807.56;5019388;27;101122;-68
2022/09/04 10:20:40;;;;;;;3.22;1.50;;;;;;;27.45;29.00;101805.84;5044974;27;98197;-68
2022/09/04 10:23:39;;;;;;;3.63;1.97;;;;;;;27.53;28.92;101805.19;5045907;27;96853;-67
2022/09/04 10:26:34;;;;;;;2.28;2.03;;;;;;;27.53;29.18;101816.91;5048253;27;97165;-67
2022/09/04 10:29:22;;;;;;;5.65;1.80;;;;;;;27.34;29.23;101816.81;5045569;27;99215;-67
2022/09/04 10:32:15;;;;;;;2.33;1.67;;;;;;;27.30;29.72;101818.97;5045691;27;99709;-66
2022/09/04 10:35:10;;;;;;;2.22;1.88;;;;;;;27.09;28.85;101818.16;5035468;27;97073;-67
2022/09/04 10:37:55;;;;;;;2.50;1.65;;;;;;;27.17;29.17;101821.06;5043745;27;98447;-67
2022/09/04 10:40:35;;;;;;;3.30;1.70;;;;;;;27.28;28.53;101815.53;5044977;27;97355;-67
2022/09/04 10:43:45;;;;;;;2.55;1.55;;;;;;;27.36;28.75;101829.28;5045762;27;98759;-67
2022/09/04 10:46:18;;;;;;;3.40;1.90;;;;;;;27.43;29.07;101826.00;4962923;28;97059;-68
2022/09/04 10:49:07;;;;;;;5.43;1.85;;;;;;;27.82;28.07;101825.16;5036903;27;98408;-66
2022/09/04 10:51:51;;;;;;;2.55;1.73;;;;;;;28.01;27.68;101825.19;5045307;27;99501;-66
2022/09/04 10:54:33;;;;;;;2.33;1.48;;;;;;;27.78;28.20;101820.97;5043626;27;99009;-66
2022/09/04 10:57:12;;;;;;;2.47;1.52;;;;;;;27.85;28.12;101821.28;5044296;27;97227;-67
2022/09/04 11:00:01;;;;;;;5.00;1.20;;;;;;;27.78;28.05;101820.97;5044181;27;97419;-67
2022/09/04 11:02:56;;;;;;;7.25;1.70;;;;;;;27.58;28.26;101820.06;5044257;27;98914;-67
2022/09/04 11:05:40;;;;;;;4.57;1.80;;;;;;;27.59;28.45;101821.78;5045486;27;98991;-68
2022/09/04 11:08:34;;;;;;;2.42;1.55;;;;;;;27.54;28.73;101823.22;5046487;27;96823;-67
2022/09/04 11:11:15;;;;;;;3.33;1.80;;;;;;;27.51;28.65;101831.59;5042701;27;98414;-67
2022/09/04 11:14:10;;;;;;;3.47;1.52;;;;;;;27.20;28.47;101820.75;5047389;27;99619;-67
2022/09/04 11:16:58;;;;;;;2.65;1.30;;;;;;;27.27;28.94;101815.66;5043135;27;98695;-68
2022/09/04 11:20:01;;;;;;;1.83;1.38;;;;;;;27.29;28.84;101814.53;5048969;27;96841;-67
2022/09/04 11:22:49;;;;;;;2.17;1.63;;;;;;;27.51;28.70;101823.44;5036613;27;97246;-66
2022/09/04 11:26:01;;;;;;;3.95;1.75;;;;;;;27.59;28.33;101810.94;5046264;27;97732;-67
2022/09/04 11:28:47;;;;;;;1.85;1.52;;;;;;;27.81;28.38;101809.00;5046399;27;98831;-67
2022/09/04 11:31:34;;;;;;;4.27;1.50;;;;;;;27.81;28.49;101814.41;5049858;27;96658;-68
2022/09/04 11:34:34;;;;;;;3.28;1.75;;;;;;;27.73;28.05;101818.69;5049662;27;96810;-67
2022/09/04 11:37:42;;;;;;;3.78;2.10;;;;;;;27.88;27.96;101805.56;5046951;27;98973;-67
2022/09/04 11:40:32;;;;;;;4.72;2.13;;;;;;;27.96;28.20;101810.31;5040798;27;98792;-67
2022/09/04 11:43:17;;;;;;;2.97;1.27;;;;;;;27.96;28.07;101802.97;5042045;27;97058;-67
2022/09/04 11:46:09;;;;;;;6.93;2.07;;;;;;;27.96;28.21;101792.13;5046341;27;96919;-67
2022/09/04 11:49:17;;;;;;;4.65;1.85;;;;;;;27.96;28.22;101799.44;5049723;27;98996;-67
2022/09/04 11:52:07;;;;;;;3.55;1.65;;;;;;;27.94;28.49;101799.56;5044924;27;98836;-67
2022/09/04 11:55:15;;;;;;;2.22;1.88;;;;;;;27.97;28.12;101787.53;5046201;27;97529;-67
2022/09/04 11:57:48;;;;;;;;;;;;;;;27.70;28.23;101790.94;5046876;27;97412;-68
2022/09/04 12:00:16;;;;;;;3.53;1.77;;;;;;;28.03;27.98;101793.28;5046744;27;97817;-68
2022/09/04 12:03:18;;;;;;;1.80;1.67;;;;;;;27.96;28.00;101791.28;5042338;27;99022;-67
2022/09/04 12:06:12;;;;;;;2.88;1.70;;;;;;;27.85;28.11;101784.09;5047413;27;98758;-68
2022/09/04 12:09:15;;;;;;;2.80;1.75;;;;;;;27.99;27.78;101785.56;5047289;27;98810;-68
2022/09/04 12:12:10;;;;;;;2.35;1.88;;;;;;;28.30;27.35;101779.00;5043091;27;99157;-67
2022/09/04 12:15:03;;;;;;;2.58;2.05;;;;;;;28.32;26.84;101781.59;5048642;27;99272;-67
2022/09/04 12:17:55;;;;;;;2.75;1.60;;;;;;;28.47;26.66;101778.28;5041970;27;96828;-67
2022/09/04 12:20:44;;;;;;;2.03;1.80;;;;;;;28.37;26.51;101776.56;5044101;27;97684;-67
2022/09/04 12:23:40;;;;;;;3.20;1.70;;;;;;;28.53;26.48;101768.69;5044364;27;99006;-68
2022/09/04 12:26:33;;;;;;;1.77;1.60;;;;;;;28.60;26.26;101775.25;5043844;27;99098;-68
2022/09/04 12:29:37;;;;;;;1.83;1.55;;;;;;;28.59;26.59;101787.13;5054841;27;98034;-67
2022/09/04 12:32:38;;;;;;;4.72;1.63;;;;;;;28.54;26.49;101773.13;5043884;27;97810;-67
2022/09/04 12:35:53;;;;;;;1.90;1.70;;;;;;;28.85;26.62;101774.63;5039575;27;98956;-68
2022/09/04 12:38:45;;;;;;;5.00;2.15;;;;;;;28.90;26.68;101782.34;5045551;27;99364;-67
2022/09/04 12:41:15;;;;;;;2.00;1.52;;;;;;;28.83;26.45;101782.09;5048449;27;98759;-67
2022/09/04 12:44:02;;;;;;;2.25;1.52;;;;;;;28.82;26.95;101787.66;5053810;27;96916;-68
2022/09/04 12:46:37;;;;;;;;;;;;;;;28.64;26.87;101775.81;5050939;27;99052;-67
2022/09/04 12:49:38;;;;;;;4.10;2.05;;;;;;;28.84;26.60;101791.09;5047705;27;98997;-67